Weather observations for the past three days for
Joslin Field - Magic Valley Regional Airport
Imperial (Metric)
Date Time (mdt) Wind (mph) Vis. (mi.) Weather Sky Cond. Temperature (ºF) Relative Humidity Wind Chill (°F) Heat Index (°F) Pressure Precipitation (in)
Air Dwpt 6 hour altimeter (in) sea level (mb) 1 hr 3 hr 6 hr
Max. Min.
07 02:53 W 10 G 22 10.00 Mostly Cloudy BKN120 60.1 30 32% 29.99 1011.2
07 00:53 S 13 10.00 Fair CLR 59 30.9 35% 29.98 1011.2
06 23:53 S 7 10.00 Fair CLR 54 32 73 54 43% 30.01 1012.8
06 22:53 S 12 10.00 Fair CLR 59 30 33% 30.02 1013.2
06 20:53 SW 12 10.00 Fair CLR 61 32 34% 30.03 1013.8
06 19:53 W 13 10.00 Fair CLR 66.9 30.9 26% 30.02 1013.5
06 18:53 W 16 G 24 10.00 Fair CLR 71.1 28.9 21% 30.03 1013.8
06 17:53 NW 20 G 26 10.00 Fair CLR 73 30 73 57 20% 30.04 1014.0
06 16:53 NW 14 G 26 10.00 Fair CLR 72 30 21% 30.05 1014.2
06 15:53 NW 15 G 22 10.00 Fair CLR 72 30 21% 30.08 1015.3
06 14:53 W 8 G 20 10.00 Fair CLR 66.9 28.9 24% 30.1 1016.0
06 13:53 NW 12 G 18 10.00 Fair CLR 64.9 28 25% 30.12 1016.8
06 12:53 Vrbl 3 10.00 Fair CLR 62.1 26.1 25% 30.13 1017.4
06 11:53 Calm 10.00 Fair CLR 57 26.1 57 32 30% 30.14 1017.9
06 10:53 E 8 10.00 Fair CLR 54 26.1 34% 30.14 1017.7
06 09:53 E 10 10.00 Fair CLR 50 25 38% 46 30.14 1017.9
06 08:53 E 13 10.00 Fair CLR 46.9 23 39% 42 30.14 1018.1
06 07:53 NE 9 10.00 Fair CLR 43 25 49% 38 30.13 1016.7
06 06:53 E 7 10.00 Fair CLR 39 21 48% 35 30.09 1015.7
06 05:53 SE 9 10.00 Fair CLR 37.9 21.9 48.9 37.9 52% 32 30.07 1015.2
06 04:53 E 10 10.00 Fair CLR 41 21.9 47% 35 30.06 1014.6
06 03:53 E 10 10.00 Fair CLR 39.9 26.1 58% 34 30.04 1013.9
06 02:53 E 22 G 32 10.00 Fair and Breezy CLR 45 23 42% 37 30.02 1012.9
06 01:53 E 15 10.00 Fair CLR 44.1 26.1 49% 38 30 1012.6
06 00:53 E 15 G 26 10.00 Fair CLR 46 28 50% 40 29.98 1011.7
05 23:53 E 21 G 35 10.00 A Few Clouds and Breezy FEW090 48.9 30.9 72 48.9 50% 43 29.93 1010.0
05 22:53 SW 13 10.00 Fair CLR 55.9 33.1 42% 29.82 1006.3
05 21:53 SW 6 10.00 Fair CLR 55.9 35.1 46% 29.81 1006.0
05 20:53 E 13 10.00 A Few Clouds FEW120 57 39 51% 29.8 1005.4
05 19:53 W 24 G 33 10.00 Mostly Cloudy and Breezy BKN110 70 35.1 28% 29.74 1003.0
05 18:53 W 12 G 18 10.00 Mostly Cloudy BKN090 BKN110 70 32 25% 29.75 1003.2
05 17:53 SE 5 10.00 Fair CLR 68 32 71.1 63 26% 29.77 1004.1
05 16:53 W 8 G 18 10.00 Fair CLR 69.1 28.9 22% 29.8 1004.9
05 15:53 NW 7 10.00 Mostly Cloudy BKN085 70 28.9 22% 29.81 1005.1
05 14:53 N 6 10.00 A Few Clouds FEW100 68 30.9 25% 29.82 1006.1
05 13:53 NE 14 G 22 10.00 Fair CLR 66 32 28% 29.83 1006.7
05 12:53 E 15 G 23 10.00 Fair CLR 64.9 37.9 37% 29.84 1006.0
05 11:53 E 17 G 25 10.00 Fair CLR 63 37.9 63 50 40% 29.84 1006.4
05 09:53 E 23 G 31 10.00 Mostly Cloudy and Breezy BKN100 BKN120 53.1 30.9 43% 29.85 1007.1
05 08:53 E 21 G 29 10.00 Partly Cloudy and Breezy SCT100 54 30.9 42% 29.85 1007.0
05 07:53 E 16 10.00 Fair CLR 50 34 54% 45 29.83 1006.0
05 06:53 E 20 G 29 10.00 Light Rain FEW075 SCT090 OVC110 51.1 33.1 50% 29.8 1004.6
05 05:53 E 17 10.00 Overcast OVC110 52 34 57.9 44.1 50% 29.8 1004.5
05 04:53 E 12 10.00 Partly Cloudy SCT120 50 34 54% 46 29.78 1003.9
05 03:53 E 9 10.00 Fair CLR 51.1 32 48% 29.77 1003.3
05 02:53 E 5 10.00 Fair CLR 46.9 28 48% 45 29.75 1003.0
05 01:53 SE 5 10.00 Fair CLR 46 33.1 61% 44 29.74 1003.0
05 00:53 S 12 10.00 Fair CLR 57.9 24.1 27% 29.72 1001.4
04 23:53 S 13 10.00 Fair CLR 55.9 25 77 55 30% 29.7 1001.0
04 22:53 S 10 10.00 Fair CLR 57 26.1 30% 29.7 1001.2
04 21:53 W 9 10.00 Fair CLR 61 26.1 26% 29.71 1001.3
04 20:53 W 9 10.00 Fair CLR 60.1 28 30% 29.69 1001.0
04 19:53 W 10 10.00 Fair CLR 71.1 27 19% 29.68 1000.7
04 18:53 NW 12 10.00 Fair CLR 75 28 18% 76 29.68 1000.8
04 17:53 NW 7 10.00 Fair CLR 75.9 28 77 70 17% 76 29.69 1000.8
04 16:53 NW 9 10.00 Fair CLR 75.9 28 17% 76 29.7 1000.9
04 15:53 N 12 G 16 10.00 Fair CLR 75.9 35.1 23% 77 29.72 1001.4
04 14:53 NW 13 10.00 Fair CLR 75 35.1 23% 76 29.75 1002.7
04 12:53 W 13 G 20 10.00 Fair CLR 72 36 27% 29.78 1003.9
04 11:53 W 12 10.00 Fair CLR 71.1 35.1 71.1 48 27% 29.8 1004.6
04 10:53 W 9 G 21 10.00 Fair CLR 68 33.1 27% 29.81 1004.5
04 08:53 SW 10 10.00 Fair CLR 61 34 36% 29.82 1005.5
04 07:53 SW 12 10.00 Fair CLR 53.1 30 41% 29.82 1005.1
04 06:53 SW 13 10.00 Fair CLR 48.9 28.9 46% 44 29.8 1004.5
04 05:53 S 10 10.00 Fair CLR 50 30 60.1 50 46% 46 29.8 1004.4
04 04:53 SW 12 10.00 Fair CLR 53.1 30 41% 29.8 1004.1
04 03:53 SW 10 10.00 Fair CLR 55 30 38% 29.8 1004.0
Date Time (mdt) Wind (mph) Vis. (mi.) Weather Sky Cond. Air Dwpt Max. Min. Relative Humidity Wind Chill (°F) Heat Index (°F) altimeter (in) sea level (mb) 1 hr 3 hr 6 hr
6 hour
Temperature (ºF) Pressure Precipitation (in)